createdAt,value
2023-12-10T00:00:23.364Z,13.27
2023-12-10T00:02:56.566Z,11.58
2023-12-10T00:05:32.301Z,12.74
2023-12-10T00:08:06.008Z,13.02
2023-12-10T00:10:39.255Z,12.52
2023-12-10T00:13:11.476Z,13.29
2023-12-10T00:15:46.250Z,13.39
2023-12-10T00:18:19.611Z,12.28
2023-12-10T00:20:52.822Z,13.31
2023-12-10T00:23:26.114Z,13.67
2023-12-10T00:25:59.334Z,12.30
2023-12-10T00:28:32.562Z,13.47
2023-12-10T00:31:10.143Z,14.50
2023-12-10T00:33:43.569Z,12.40
2023-12-10T00:36:17.346Z,13.70
2023-12-10T00:38:50.644Z,13.46
2023-12-10T00:41:23.879Z,12.80
2023-12-10T00:43:57.087Z,12.98
2023-12-10T00:46:31.767Z,11.34
2023-12-10T00:49:05.116Z,12.82
2023-12-10T00:51:38.780Z,12.17
2023-12-10T00:54:12.744Z,13.02
2023-12-10T00:56:46.861Z,12.30
2023-12-10T00:59:20.073Z,11.39
2023-12-10T01:01:54.720Z,11.38
2023-12-10T01:04:28.513Z,11.27
2023-12-10T01:07:01.836Z,11.31
2023-12-10T01:09:37.353Z,11.22
2023-12-10T01:12:10.884Z,10.48
2023-12-10T01:14:45.584Z,10.64
2023-12-10T01:17:20.173Z,10.55
2023-12-10T01:19:53.467Z,10.75
2023-12-10T01:22:26.919Z,10.58
2023-12-10T01:25:01.419Z,10.81
2023-12-10T01:27:34.691Z,9.78
2023-12-10T01:30:08.991Z,10.37
2023-12-10T01:32:43.911Z,9.97
2023-12-10T01:35:17.447Z,10.93
2023-12-10T01:37:50.913Z,10.92
2023-12-10T01:40:24.322Z,9.96
2023-12-10T01:42:57.643Z,9.46
2023-12-10T01:45:32.010Z,9.36
2023-12-10T01:48:09.852Z,9.74
2023-12-10T01:50:45.364Z,9.27
2023-12-10T01:53:19.537Z,9.03
2023-12-10T01:55:53.282Z,8.89
2023-12-10T01:58:26.487Z,8.59
2023-12-10T02:01:00.146Z,9.16
2023-12-10T02:03:36.233Z,8.86
2023-12-10T02:06:09.476Z,8.74
2023-12-10T02:08:42.699Z,9.15
2023-12-10T02:11:15.968Z,8.46
2023-12-10T02:13:50.701Z,8.93
2023-12-10T02:16:23.934Z,8.37
2023-12-10T02:18:58.652Z,7.97
2023-12-10T02:21:34.668Z,8.11
2023-12-10T02:24:16.793Z,7.62
2023-12-10T02:26:51.702Z,7.98
2023-12-10T02:29:25.191Z,8.31
2023-12-10T02:31:58.437Z,8.34
2023-12-10T02:34:31.735Z,8.17
2023-12-10T02:37:07.188Z,8.55
2023-12-10T02:39:40.527Z,8.55
2023-12-10T02:42:15.268Z,8.29
2023-12-10T02:44:48.570Z,8.99
2023-12-10T02:47:21.789Z,9.38
2023-12-10T02:49:55.005Z,9.31
2023-12-10T02:52:28.491Z,9.53
2023-12-10T02:55:01.829Z,9.60
2023-12-10T02:57:36.518Z,9.45
2023-12-10T03:00:11.864Z,9.17
2023-12-10T03:02:45.262Z,9.55
2023-12-10T03:05:18.603Z,10.37
2023-12-10T03:07:51.887Z,9.64
2023-12-10T03:10:25.118Z,9.94
2023-12-10T03:12:59.858Z,8.94
2023-12-10T03:15:33.195Z,10.84
2023-12-10T03:18:08.500Z,9.91
2023-12-10T03:20:41.817Z,10.74
2023-12-10T03:23:15.165Z,10.05
2023-12-10T03:25:50.680Z,9.60
2023-12-10T03:28:25.332Z,10.05
2023-12-10T03:30:58.573Z,10.20
2023-12-10T03:33:33.255Z,10.35
2023-12-10T03:36:07.152Z,10.13
2023-12-10T03:38:42.460Z,10.70
2023-12-10T03:41:15.836Z,10.92
2023-12-10T03:43:50.553Z,10.40
2023-12-10T03:46:23.796Z,10.53
2023-12-10T03:48:57.193Z,11.27
2023-12-10T03:51:32.511Z,10.98
2023-12-10T03:54:06.283Z,10.88
2023-12-10T03:56:39.521Z,10.09
2023-12-10T03:59:14.151Z,10.63
2023-12-10T04:01:47.442Z,11.19
2023-12-10T04:04:20.754Z,10.81
2023-12-10T04:06:54.003Z,10.53
2023-12-10T04:09:27.283Z,11.07
2023-12-10T04:12:01.491Z,11.47
2023-12-10T04:14:36.483Z,10.45
2023-12-10T04:17:09.639Z,10.94
2023-12-10T04:19:44.120Z,10.55
2023-12-10T04:22:19.607Z,9.92
2023-12-10T04:24:52.866Z,10.75
2023-12-10T04:27:26.846Z,10.48
2023-12-10T04:30:01.524Z,10.46
2023-12-10T04:32:34.948Z,10.96
2023-12-10T04:35:08.953Z,11.18
2023-12-10T04:37:42.576Z,11.04
2023-12-10T04:40:15.831Z,10.42
2023-12-10T04:42:49.932Z,10.29
2023-12-10T04:45:24.596Z,9.92
2023-12-10T04:47:58.057Z,9.99
2023-12-10T04:50:31.661Z,10.33
2023-12-10T04:53:04.954Z,9.50
2023-12-10T04:55:38.286Z,10.32
2023-12-10T04:58:11.835Z,10.16
2023-12-10T05:00:46.924Z,8.66
2023-12-10T05:03:20.310Z,9.70
2023-12-10T05:05:53.610Z,9.32
2023-12-10T05:08:27.141Z,9.36
2023-12-10T05:11:00.457Z,9.50
2023-12-10T05:13:33.718Z,9.46
2023-12-10T05:16:08.969Z,10.06
2023-12-10T05:18:42.265Z,10.14
2023-12-10T05:21:15.810Z,10.14
2023-12-10T05:23:49.050Z,9.77
2023-12-10T05:26:22.270Z,9.99
2023-12-10T05:28:55.502Z,9.13
2023-12-10T05:31:30.475Z,9.74
2023-12-10T05:34:03.742Z,10.15
2023-12-10T05:36:37.148Z,10.26
2023-12-10T05:39:12.091Z,10.24
2023-12-10T05:41:45.328Z,10.83
2023-12-10T05:44:18.521Z,10.25
2023-12-10T05:46:53.210Z,10.64
2023-12-10T05:49:26.650Z,10.53
2023-12-10T05:52:00.090Z,9.88
2023-12-10T05:54:33.445Z,9.97
2023-12-10T05:57:07.252Z,11.00
2023-12-10T05:59:40.443Z,10.19
2023-12-10T06:02:15.170Z,9.61
2023-12-10T06:04:48.432Z,10.67
2023-12-10T06:07:21.761Z,9.63
2023-12-10T06:09:55.008Z,9.81
2023-12-10T06:12:28.716Z,10.40
2023-12-10T06:15:02.158Z,10.00
2023-12-10T06:17:36.827Z,9.50
2023-12-10T06:20:11.283Z,9.27
2023-12-10T06:22:44.492Z,9.69
2023-12-10T06:25:17.741Z,10.01
2023-12-10T06:27:51.032Z,10.21
2023-12-10T06:30:24.395Z,9.87
2023-12-10T06:32:59.181Z,9.37
2023-12-10T06:35:34.689Z,9.57
2023-12-10T06:38:08.835Z,9.36
2023-12-10T06:40:42.056Z,9.89
2023-12-10T06:43:15.317Z,10.48
2023-12-10T06:45:49.153Z,9.91
2023-12-10T06:48:24.141Z,9.96
2023-12-10T06:50:57.525Z,9.20
2023-12-10T06:53:32.980Z,9.81
2023-12-10T06:56:06.875Z,9.24
2023-12-10T06:58:40.353Z,9.73
2023-12-10T07:01:16.105Z,9.00
2023-12-10T07:03:53.266Z,9.65
2023-12-10T07:06:26.544Z,9.35
2023-12-10T07:08:59.821Z,10.57
2023-12-10T07:11:33.103Z,10.01
2023-12-10T07:14:06.450Z,9.09
2023-12-10T07:16:39.678Z,8.60
2023-12-10T07:19:14.456Z,9.21
2023-12-10T07:21:50.055Z,9.34
2023-12-10T07:24:24.064Z,9.53
2023-12-10T07:26:57.249Z,8.32
2023-12-10T07:29:30.514Z,8.61
2023-12-10T07:32:03.753Z,8.81
2023-12-10T07:34:38.496Z,9.06
2023-12-10T07:37:11.906Z,8.60
2023-12-10T07:39:45.262Z,8.72
2023-12-10T07:42:18.570Z,8.74
2023-12-10T07:44:51.947Z,8.76
2023-12-10T07:47:25.232Z,8.48
2023-12-10T07:49:59.998Z,8.26
2023-12-10T07:52:33.345Z,8.96
2023-12-10T07:55:07.632Z,9.07
2023-12-10T07:57:41.109Z,8.74
2023-12-10T08:00:15.513Z,9.15
2023-12-10T08:02:48.880Z,14.50
2023-12-10T08:05:23.816Z,23.42
2023-12-10T08:07:58.136Z,18.52
2023-12-10T08:10:31.709Z,13.25
2023-12-10T08:13:05.012Z,8.54
2023-12-10T08:15:38.285Z,10.18
2023-12-10T08:18:11.702Z,10.53
2023-12-10T08:20:46.424Z,8.25
2023-12-10T08:23:19.667Z,9.10
2023-12-10T08:25:52.869Z,9.49
2023-12-10T08:28:26.128Z,9.51
2023-12-10T08:30:59.489Z,8.99
2023-12-10T08:33:32.965Z,9.83
2023-12-10T08:36:08.582Z,9.91
2023-12-10T08:38:44.868Z,8.87
2023-12-10T08:41:18.525Z,8.86
2023-12-10T08:43:51.782Z,8.52
2023-12-10T08:46:25.019Z,10.04
2023-12-10T08:48:58.826Z,10.06
2023-12-10T08:51:33.524Z,9.94
2023-12-10T08:54:06.807Z,9.58
2023-12-10T08:56:40.244Z,9.40
2023-12-10T08:59:13.501Z,9.48
2023-12-10T09:01:46.787Z,9.55
2023-12-10T09:04:20.091Z,9.38
2023-12-10T09:06:54.762Z,9.16
2023-12-10T09:09:29.533Z,9.07
2023-12-10T09:12:03.033Z,9.32
2023-12-10T09:14:37.421Z,9.61
2023-12-10T09:17:10.698Z,9.96
2023-12-10T09:19:43.974Z,10.05
2023-12-10T09:22:18.804Z,9.81
2023-12-10T09:24:52.097Z,10.78
2023-12-10T09:27:25.438Z,10.51
2023-12-10T09:29:58.919Z,9.98
2023-12-10T09:32:32.484Z,10.07
2023-12-10T09:35:06.945Z,10.44
2023-12-10T09:37:41.594Z,10.66
2023-12-10T09:40:15.552Z,10.29
2023-12-10T09:42:49.766Z,11.11
2023-12-10T09:45:23.525Z,10.80
2023-12-10T09:47:57.652Z,10.34
2023-12-10T09:50:34.029Z,10.18
2023-12-10T09:53:08.874Z,10.92
2023-12-10T09:55:42.615Z,9.94
2023-12-10T09:58:16.044Z,10.62
2023-12-10T10:00:49.511Z,10.87
2023-12-10T10:03:23.159Z,9.78
2023-12-10T10:05:56.592Z,10.02
2023-12-10T10:08:31.386Z,10.36
2023-12-10T10:11:05.004Z,11.24
2023-12-10T10:13:53.114Z,10.50
2023-12-10T10:16:26.332Z,10.73
2023-12-10T10:19:01.139Z,10.14
2023-12-10T10:21:34.886Z,10.56
2023-12-10T10:24:10.227Z,16.18
2023-12-10T10:26:45.714Z,16.38
2023-12-10T10:29:20.600Z,13.08
2023-12-10T10:31:59.360Z,9.39
2023-12-10T10:34:36.712Z,9.72
2023-12-10T10:37:10.593Z,9.49
2023-12-10T10:39:45.960Z,10.57
2023-12-10T10:42:21.668Z,9.72
2023-12-10T10:44:54.919Z,9.46
2023-12-10T10:47:30.485Z,9.78
2023-12-10T10:50:21.073Z,10.39
2023-12-10T10:52:58.499Z,10.01
2023-12-10T10:55:35.151Z,9.40
2023-12-10T10:58:31.709Z,9.56
2023-12-10T11:01:06.879Z,10.26
2023-12-10T11:03:40.321Z,10.34
2023-12-10T11:06:13.770Z,10.84
2023-12-10T11:08:57.813Z,11.38
2023-12-10T11:11:39.455Z,12.61
2023-12-10T11:14:23.057Z,10.57
2023-12-10T11:17:02.317Z,11.47
2023-12-10T11:19:35.828Z,11.34
2023-12-10T11:22:15.180Z,10.52
2023-12-10T11:24:51.927Z,10.90
2023-12-10T11:27:28.091Z,12.98
2023-12-10T11:30:01.530Z,10.39
2023-12-10T11:32:34.758Z,11.17
2023-12-10T11:35:08.613Z,11.35
2023-12-10T11:37:41.929Z,10.73
2023-12-10T11:40:15.696Z,11.59
2023-12-10T11:42:50.362Z,10.31
2023-12-10T11:45:23.596Z,11.72
2023-12-10T11:47:57.524Z,10.85
2023-12-10T11:50:33.072Z,10.42
2023-12-10T11:53:08.351Z,10.81
2023-12-10T11:55:41.800Z,10.92
2023-12-10T11:58:26.165Z,10.70
2023-12-10T12:01:01.068Z,11.11
2023-12-10T12:03:35.554Z,10.60
2023-12-10T12:06:09.454Z,10.55
2023-12-10T12:08:42.896Z,10.23
2023-12-10T12:11:18.015Z,10.42
2023-12-10T12:13:53.508Z,11.28
2023-12-10T12:16:26.801Z,10.76
2023-12-10T12:19:00.204Z,10.95
2023-12-10T12:21:33.438Z,10.32
2023-12-10T12:24:07.160Z,9.64
2023-12-10T12:26:40.529Z,10.95
2023-12-10T12:29:15.090Z,10.20
2023-12-10T12:32:04.545Z,10.40
2023-12-10T12:34:41.652Z,9.94
2023-12-10T12:37:14.988Z,10.40
2023-12-10T12:39:48.514Z,21.59
2023-12-10T12:42:23.656Z,23.45
2023-12-10T12:44:58.484Z,28.98
2023-12-10T12:47:32.162Z,10.76
2023-12-10T12:50:07.766Z,10.19
2023-12-10T12:52:41.143Z,9.58
2023-12-10T12:55:14.700Z,11.04
2023-12-10T12:57:47.945Z,9.55
2023-12-10T13:00:23.207Z,9.52
2023-12-10T13:02:58.152Z,9.78
2023-12-10T13:05:31.513Z,9.64
2023-12-10T13:08:04.803Z,8.87
2023-12-10T13:10:39.144Z,8.87
2023-12-10T13:13:13.118Z,9.03
2023-12-10T13:15:48.329Z,8.84
2023-12-10T13:18:21.699Z,8.67
2023-12-10T13:20:55.212Z,8.82
2023-12-10T13:23:28.599Z,8.47
2023-12-10T13:26:01.852Z,9.03
2023-12-10T13:28:35.142Z,16.16
2023-12-10T13:31:09.864Z,17.13
2023-12-10T13:33:43.837Z,12.98
2023-12-10T13:36:17.184Z,24.58
2023-12-10T13:38:50.839Z,23.97
2023-12-10T13:41:25.662Z,7.73
2023-12-10T13:43:58.896Z,8.10
2023-12-10T13:46:34.387Z,9.17
2023-12-10T13:49:08.429Z,9.33
2023-12-10T13:51:41.735Z,7.21
2023-12-10T13:54:15.112Z,6.87
2023-12-10T13:56:50.925Z,8.28
2023-12-10T13:59:24.442Z,7.98
2023-12-10T14:01:59.056Z,8.63
2023-12-10T14:04:32.439Z,8.29
2023-12-10T14:07:07.536Z,7.71
2023-12-10T14:09:40.886Z,7.36
2023-12-10T14:12:14.493Z,8.34
2023-12-10T14:14:47.686Z,7.76
2023-12-10T14:17:22.445Z,7.68
2023-12-10T14:19:55.811Z,7.78
2023-12-10T14:22:29.174Z,8.26
2023-12-10T14:25:03.749Z,8.57
2023-12-10T14:27:37.067Z,7.89
2023-12-10T14:30:13.369Z,8.11
2023-12-10T14:32:48.110Z,10.20
2023-12-10T14:35:21.521Z,6.97
2023-12-10T14:37:54.777Z,6.91
2023-12-10T14:40:28.031Z,7.10
2023-12-10T14:43:01.391Z,7.33
2023-12-10T14:45:34.734Z,8.49
2023-12-10T14:48:12.064Z,7.68
2023-12-10T14:50:45.368Z,7.44
2023-12-10T14:53:19.085Z,7.29
2023-12-10T14:55:52.341Z,8.07
2023-12-10T14:58:28.121Z,7.49
2023-12-10T15:01:01.425Z,7.94
2023-12-10T15:03:36.157Z,8.20
2023-12-10T15:06:09.870Z,7.98
2023-12-10T15:08:43.151Z,7.69
2023-12-10T15:11:16.394Z,7.89
2023-12-10T15:13:49.690Z,7.58
2023-12-10T15:16:24.586Z,7.90
2023-12-10T15:18:59.386Z,8.18
2023-12-10T15:21:32.719Z,7.96
2023-12-10T15:24:06.550Z,7.79
2023-12-10T15:26:39.803Z,7.43
2023-12-10T15:29:13.074Z,7.03
2023-12-10T15:31:46.959Z,6.57
2023-12-10T15:34:21.761Z,6.82
2023-12-10T15:36:55.219Z,6.27
2023-12-10T15:39:28.587Z,6.17
2023-12-10T15:42:01.911Z,5.77
2023-12-10T15:44:35.306Z,6.21
2023-12-10T15:47:08.922Z,6.30
2023-12-10T15:49:43.630Z,6.09
2023-12-10T15:52:26.126Z,5.83
2023-12-10T15:55:03.939Z,6.20
2023-12-10T15:57:38.626Z,5.75
2023-12-10T16:00:12.624Z,5.77
2023-12-10T16:02:45.904Z,5.73
2023-12-10T16:05:20.661Z,5.95
2023-12-10T16:07:54.426Z,5.67
2023-12-10T16:10:27.962Z,6.06
2023-12-10T16:13:01.212Z,6.12
2023-12-10T16:15:34.609Z,5.20
2023-12-10T16:18:07.991Z,5.65
2023-12-10T16:20:42.662Z,5.53
2023-12-10T16:23:16.154Z,5.74
2023-12-10T16:25:49.369Z,5.70
2023-12-10T16:28:22.566Z,5.61
2023-12-10T16:30:55.899Z,5.10
2023-12-10T16:33:29.275Z,5.75
2023-12-10T16:36:04.040Z,6.47
2023-12-10T16:38:37.222Z,5.10
2023-12-10T16:41:11.120Z,5.25
2023-12-10T16:43:45.550Z,6.03
2023-12-10T16:46:19.564Z,5.92
2023-12-10T16:48:52.895Z,6.20
2023-12-10T16:51:27.600Z,5.97
2023-12-10T16:54:01.961Z,6.76
2023-12-10T16:56:35.208Z,6.63
2023-12-10T16:59:08.437Z,6.28
2023-12-10T17:01:41.823Z,6.16
2023-12-10T17:04:15.208Z,6.32
2023-12-10T17:06:50.096Z,6.14
2023-12-10T17:09:23.319Z,6.28
2023-12-10T17:11:57.380Z,5.95
2023-12-10T17:14:30.588Z,6.67
2023-12-10T17:17:03.971Z,5.87
2023-12-10T17:19:37.540Z,6.11
2023-12-10T17:22:12.403Z,6.21
2023-12-10T17:24:45.715Z,5.73
2023-12-10T17:27:19.959Z,5.25
2023-12-10T17:29:53.318Z,5.37
2023-12-10T17:32:26.716Z,5.27
2023-12-10T17:35:03.717Z,5.52
2023-12-10T17:37:38.873Z,5.27
2023-12-10T17:40:13.430Z,5.48
2023-12-10T17:42:46.848Z,5.72
2023-12-10T17:45:20.868Z,5.77
2023-12-10T17:47:54.284Z,5.83
2023-12-10T17:50:27.858Z,4.98
2023-12-10T17:53:02.639Z,5.34
2023-12-10T17:55:35.844Z,4.58
2023-12-10T17:58:11.502Z,4.58
2023-12-10T18:00:46.453Z,5.10
2023-12-10T18:03:19.880Z,5.07
2023-12-10T18:05:53.169Z,5.30
2023-12-10T18:08:27.784Z,4.66
2023-12-10T18:11:01.818Z,4.99
2023-12-10T18:13:35.119Z,4.29
2023-12-10T18:16:09.136Z,3.87
2023-12-10T18:18:42.581Z,4.31
2023-12-10T18:21:16.277Z,3.84
2023-12-10T18:23:50.949Z,3.72
2023-12-10T18:26:24.164Z,3.91
2023-12-10T18:28:57.554Z,3.15
2023-12-10T18:31:31.148Z,3.30
2023-12-10T18:34:04.969Z,3.03
2023-12-10T18:36:38.326Z,3.02
2023-12-10T18:39:13.097Z,3.55
2023-12-10T18:41:46.265Z,3.61
2023-12-10T18:44:19.469Z,3.66
2023-12-10T18:46:52.891Z,2.68
2023-12-10T18:49:26.267Z,2.31
2023-12-10T18:51:59.571Z,2.35
2023-12-10T18:54:34.292Z,2.28
2023-12-10T18:57:07.514Z,2.01
2023-12-10T18:59:41.185Z,2.10
2023-12-10T19:02:14.357Z,1.86
2023-12-10T19:04:47.712Z,1.86
2023-12-10T19:07:20.996Z,1.69
2023-12-10T19:09:55.805Z,1.89
2023-12-10T19:12:29.174Z,1.43
2023-12-10T19:15:02.432Z,1.32
2023-12-10T19:17:35.994Z,1.61
2023-12-10T19:20:21.767Z,1.55
2023-12-10T19:22:55.500Z,1.57
2023-12-10T19:25:30.200Z,1.42
2023-12-10T19:28:03.488Z,1.49
2023-12-10T19:30:36.754Z,1.52
2023-12-10T19:33:10.204Z,1.21
2023-12-10T19:35:43.589Z,1.21
2023-12-10T19:38:19.829Z,1.22
2023-12-10T19:40:54.864Z,1.37
2023-12-10T19:43:28.146Z,1.18
2023-12-10T19:46:02.409Z,1.11
2023-12-10T19:48:35.752Z,1.34
2023-12-10T19:51:09.436Z,1.43
2023-12-10T19:53:44.311Z,1.01
2023-12-10T19:56:18.934Z,1.29
2023-12-10T19:58:52.112Z,1.29
2023-12-10T20:01:25.495Z,1.17
2023-12-10T20:04:00.630Z,1.22
2023-12-10T20:06:34.287Z,1.33
2023-12-10T20:09:08.684Z,1.28
2023-12-10T20:11:43.366Z,1.32
2023-12-10T20:14:16.603Z,1.16
2023-12-10T20:16:51.883Z,1.40
2023-12-10T20:19:28.608Z,1.05
2023-12-10T20:22:01.830Z,1.16
2023-12-10T20:24:38.812Z,1.41
2023-12-10T20:27:15.789Z,1.09
2023-12-10T20:29:48.969Z,1.26
2023-12-10T20:32:23.080Z,1.24
2023-12-10T20:34:56.375Z,1.13
2023-12-10T20:37:29.878Z,1.29
2023-12-10T20:40:03.537Z,1.22
2023-12-10T20:42:38.222Z,1.00
2023-12-10T20:45:11.722Z,1.38
2023-12-10T20:47:44.987Z,1.19
2023-12-10T20:50:19.054Z,1.41
2023-12-10T20:52:52.286Z,1.41
2023-12-10T20:55:25.963Z,1.32
2023-12-10T20:58:00.574Z,1.44
2023-12-10T21:00:34.863Z,1.42
2023-12-10T21:03:09.288Z,1.58
2023-12-10T21:05:43.926Z,1.73
2023-12-10T21:08:17.780Z,1.56
2023-12-10T21:10:53.577Z,1.68
2023-12-10T21:13:30.203Z,1.63
2023-12-10T21:16:03.634Z,1.99
2023-12-10T21:18:38.410Z,1.87
2023-12-10T21:21:11.680Z,1.92
2023-12-10T21:23:44.891Z,1.73
2023-12-10T21:26:18.098Z,1.87
2023-12-10T21:28:52.699Z,1.91
2023-12-10T21:31:26.085Z,2.14
2023-12-10T21:33:59.657Z,2.19
2023-12-10T21:36:33.767Z,2.32
2023-12-10T21:39:07.076Z,2.17
2023-12-10T21:41:40.302Z,2.40
2023-12-10T21:44:14.922Z,2.53
2023-12-10T21:46:48.138Z,2.22
2023-12-10T21:49:21.530Z,2.52
2023-12-10T21:51:54.873Z,2.76
2023-12-10T21:54:28.186Z,2.64
2023-12-10T21:57:01.561Z,2.73
2023-12-10T21:59:36.337Z,3.18
2023-12-10T22:02:09.614Z,3.18
2023-12-10T22:04:42.995Z,3.27
2023-12-10T22:07:17.555Z,3.65
2023-12-10T22:09:51.336Z,3.58
2023-12-10T22:12:24.585Z,4.30
2023-12-10T22:15:01.709Z,4.42
2023-12-10T22:17:35.134Z,4.66
2023-12-10T22:20:09.978Z,4.97
2023-12-10T22:22:45.049Z,5.60
2023-12-10T22:25:18.608Z,5.93
2023-12-10T22:27:52.029Z,6.47
2023-12-10T22:30:28.318Z,6.19
2023-12-10T22:33:02.404Z,5.97
2023-12-10T22:35:35.748Z,6.67
2023-12-10T22:38:08.969Z,6.77
2023-12-10T22:40:42.170Z,6.98
2023-12-10T22:43:16.057Z,6.99
2023-12-10T22:45:50.709Z,6.94
2023-12-10T22:48:24.044Z,7.14
2023-12-10T22:50:58.024Z,6.83
2023-12-10T22:53:31.218Z,6.58
2023-12-10T22:56:04.775Z,6.67
2023-12-10T22:58:37.987Z,6.90
2023-12-10T23:01:12.764Z,6.72
2023-12-10T23:03:46.162Z,7.38
2023-12-10T23:06:19.806Z,7.29
2023-12-10T23:08:53.121Z,6.80
2023-12-10T23:11:26.401Z,7.28
2023-12-10T23:13:59.647Z,7.44
2023-12-10T23:16:34.252Z,7.35
2023-12-10T23:19:07.569Z,6.68
2023-12-10T23:21:40.850Z,7.46
2023-12-10T23:24:14.240Z,8.81
2023-12-10T23:26:47.538Z,8.79
2023-12-10T23:29:20.793Z,7.57
2023-12-10T23:31:55.370Z,8.23
2023-12-10T23:34:28.657Z,7.61
2023-12-10T23:37:02.020Z,7.86
2023-12-10T23:39:35.293Z,8.36
2023-12-10T23:42:08.798Z,8.39
2023-12-10T23:44:42.062Z,7.39
2023-12-10T23:47:16.788Z,7.57
2023-12-10T23:49:50.097Z,7.92
2023-12-10T23:52:23.392Z,8.02
2023-12-10T23:54:56.690Z,7.42
2023-12-10T23:57:30.243Z,7.41
